Time;durP1;ratioP1;P1;durP2;ratioP2;P2;SDS_P1;SDS_P2;PMS_P1;PMS_P2;Temp;Humidity;BMP_temperature;BMP_pressure;BME280_temperature;BME280_humidity;BME280_pressure;Samples;Min_cycle;Max_cycle;Signal;HPM_P1;HPM_P2
2022/07/29 00:01:46;;;;;;;398.40;197.90;;;;;;;;;;5004586;28;21896;-65
2022/07/29 00:04:12;;;;;;;345.20;176.43;;;;;;;;;;5007486;28;20225;-65
2022/07/29 00:06:38;;;;;;;340.80;174.43;;;;;;;;;;5010019;28;20228;-65
2022/07/29 00:09:04;;;;;;;330.77;164.20;;;;;;;;;;5008196;28;20236;-65
2022/07/29 00:11:30;;;;;;;353.43;176.60;;;;;;;;;;5009275;28;20232;-65
2022/07/29 00:13:56;;;;;;;379.00;196.50;;;;;;;;;;5006920;28;20189;-65
2022/07/29 00:16:22;;;;;;;357.27;182.38;;;;;;;;;;5007000;28;20264;-65
2022/07/29 00:18:48;;;;;;;406.37;207.77;;;;;;;;;;5007189;28;20228;-65
2022/07/29 00:21:14;;;;;;;382.63;184.60;;;;;;;;;;5001867;28;20595;-65
2022/07/29 00:23:40;;;;;;;338.77;171.07;;;;;;;;;;5003880;28;20228;-65
2022/07/29 00:26:06;;;;;;;364.13;177.57;;;;;;;;;;5002582;28;20204;-65
2022/07/29 00:28:32;;;;;;;342.40;174.30;;;;;;;;;;5012111;28;20566;-65
2022/07/29 00:30:58;;;;;;;364.67;189.07;;;;;;;;;;5006105;28;20220;-65
2022/07/29 00:33:24;;;;;;;366.07;186.37;;;;;;;;;;5003175;28;20232;-65
2022/07/29 00:35:50;;;;;;;386.77;197.82;;;;;;;;;;5001623;28;20223;-65
2022/07/29 00:38:17;;;;;;;391.77;195.40;;;;;;;;;;5004658;28;20225;-65
2022/07/29 00:40:43;;;;;;;335.03;168.13;;;;;;;;;;5004669;28;20198;-65
2022/07/29 00:43:10;;;;;;;355.23;176.17;;;;;;;;;;5006448;28;20229;-65
2022/07/29 00:45:36;;;;;;;420.77;202.00;;;;;;;;;;5005987;28;20547;-65
2022/07/29 00:48:04;;;;;;;418.23;209.00;;;;;;;;;;5003719;28;20217;-65
2022/07/29 00:50:30;;;;;;;321.08;163.90;;;;;;;;;;5008082;28;20217;-65
2022/07/29 00:52:56;;;;;;;399.73;200.97;;;;;;;;;;5002345;28;20205;-65
2022/07/29 00:55:22;;;;;;;376.13;185.53;;;;;;;;;;5004718;28;20196;-65
2022/07/29 00:57:49;;;;;;;371.40;187.83;;;;;;;;;;5009284;28;20228;-65
2022/07/29 01:00:25;;;;;;;393.52;196.02;;;;;;;;;;5003623;28;20262;-65
2022/07/29 01:02:51;;;;;;;406.57;203.17;;;;;;;;;;4998006;28;20228;-65
2022/07/29 01:05:18;;;;;;;385.23;189.93;;;;;;;;;;4998630;28;20221;-65
2022/07/29 01:07:45;;;;;;;339.27;168.53;;;;;;;;;;5001321;28;20244;-65
2022/07/29 01:10:12;;;;;;;368.03;181.63;;;;;;;;;;5000686;28;20323;-65
2022/07/29 01:12:38;;;;;;;340.63;170.80;;;;;;;;;;5008344;28;20728;-65
2022/07/29 01:15:06;;;;;;;371.17;182.97;;;;;;;;;;4998757;28;20232;-65
2022/07/29 01:17:46;;;;;;;345.27;173.47;;;;;;;;;;5002982;28;20224;-65
2022/07/29 01:20:27;;;;;;;357.50;180.37;;;;;;;;;;5006539;28;20247;-65
2022/07/29 01:22:52;;;;;;;382.87;191.33;;;;;;;;;;5009217;28;20212;-65
2022/07/29 01:25:37;;;;;;;381.50;187.57;;;;;;;;;;5007167;28;20665;-65
2022/07/29 01:28:22;;;;;;;390.87;194.77;;;;;;;;;;5002806;28;20209;-65
2022/07/29 01:30:51;;;;;;;364.90;183.40;;;;;;;;;;5002486;28;20225;-65
2022/07/29 01:36:06;;;;;;;396.57;190.47;;;;;;;;;;5005846;28;20231;-65
2022/07/29 01:38:32;;;;;;;353.20;178.37;;;;;;;;;;5001092;28;20271;-65
2022/07/29 01:41:06;;;;;;;410.43;209.07;;;;;;;;;;4997594;28;21140;-65
2022/07/29 01:43:36;;;;;;;329.90;165.60;;;;;;;;;;5009039;28;20188;-65
2022/07/29 01:46:04;;;;;;;396.73;198.03;;;;;;;;;;5001233;28;20221;-65
2022/07/29 01:48:30;;;;;;;343.37;171.13;;;;;;;;;;5000900;28;20216;-65
2022/07/29 01:51:05;;;;;;;394.90;196.87;;;;;;;;;;5003760;28;20274;-65
2022/07/29 01:53:44;;;;;;;394.10;195.77;;;;;;;;;;5002543;28;20249;-65
2022/07/29 01:56:10;;;;;;;379.30;187.60;;;;;;;;;;4996193;28;20284;-65
2022/07/29 01:58:39;;;;;;;368.93;176.60;;;;;;;;;;4997100;28;20193;-64
2022/07/29 02:01:05;;;;;;;366.27;184.20;;;;;;;;;;5004821;28;20657;-65
2022/07/29 02:03:32;;;;;;;369.93;185.70;;;;;;;;;;5000969;28;20253;-65
2022/07/29 02:06:00;;;;;;;372.03;184.97;;;;;;;;;;5005983;28;20224;-65
2022/07/29 02:08:27;;;;;;;391.00;190.70;;;;;;;;;;5003014;28;20234;-65
2022/07/29 02:10:54;;;;;;;386.90;191.43;;;;;;;;;;4998702;28;20197;-65
2022/07/29 02:13:21;;;;;;;354.77;175.07;;;;;;;;;;5006229;28;20197;-65
2022/07/29 02:15:47;;;;;;;401.40;198.97;;;;;;;;;;4999806;28;20228;-65
2022/07/29 02:18:17;;;;;;;371.07;183.57;;;;;;;;;;5005023;28;20287;-65
2022/07/29 02:20:46;;;;;;;331.60;166.53;;;;;;;;;;5002158;28;20224;-65
2022/07/29 02:23:13;;;;;;;373.30;181.83;;;;;;;;;;4998315;28;20228;-65
2022/07/29 02:25:40;;;;;;;417.67;208.67;;;;;;;;;;5002743;28;20193;-65
2022/07/29 02:28:06;;;;;;;389.30;190.43;;;;;;;;;;5004379;28;20220;-65
2022/07/29 02:30:33;;;;;;;334.40;161.13;;;;;;;;;;5002479;28;20255;-65
2022/07/29 02:32:59;;;;;;;359.30;180.63;;;;;;;;;;5007313;28;20278;-65
2022/07/29 02:35:25;;;;;;;421.70;199.30;;;;;;;;;;4997048;28;20228;-65
2022/07/29 02:40:43;;;;;;;327.23;165.17;;;;;;;;;;4978689;28;20185;-65
2022/07/29 02:43:10;;;;;;;371.50;179.90;;;;;;;;;;5001913;28;20232;-65
2022/07/29 02:45:36;;;;;;;401.43;200.33;;;;;;;;;;4998870;28;20218;-65
2022/07/29 02:48:06;;;;;;;417.93;208.63;;;;;;;;;;4992671;28;20286;-65
2022/07/29 02:50:35;;;;;;;346.23;171.13;;;;;;;;;;5007250;28;20216;-65
2022/07/29 02:53:09;;;;;;;394.23;198.37;;;;;;;;;;5005418;28;20201;-65
2022/07/29 02:55:44;;;;;;;431.73;216.93;;;;;;;;;;5017683;28;20192;-65
2022/07/29 02:58:16;;;;;;;395.73;196.80;;;;;;;;;;5003314;28;20239;-65
2022/07/29 03:00:43;;;;;;;369.17;175.57;;;;;;;;;;4998083;28;20278;-65
2022/07/29 03:03:11;;;;;;;394.80;198.77;;;;;;;;;;4994741;28;20220;-65
2022/07/29 03:05:37;;;;;;;416.70;206.37;;;;;;;;;;5004612;28;20224;-65
2022/07/29 03:08:04;;;;;;;380.80;188.53;;;;;;;;;;4998876;28;20185;-65
2022/07/29 03:10:30;;;;;;;369.23;181.20;;;;;;;;;;4996380;28;20186;-65
2022/07/29 03:12:57;;;;;;;389.83;196.50;;;;;;;;;;4997782;28;20232;-65
2022/07/29 03:15:23;;;;;;;389.13;190.67;;;;;;;;;;5001837;28;20477;-65
2022/07/29 03:17:49;;;;;;;397.67;198.03;;;;;;;;;;4997309;28;20244;-65
2022/07/29 03:20:16;;;;;;;376.87;187.83;;;;;;;;;;5001478;28;20224;-65
2022/07/29 03:22:48;;;;;;;334.80;170.03;;;;;;;;;;5002067;28;20223;-65
2022/07/29 03:25:15;;;;;;;389.90;192.00;;;;;;;;;;4998892;28;20228;-64
2022/07/29 03:27:42;;;;;;;408.93;205.53;;;;;;;;;;5003802;28;20263;-65
2022/07/29 03:30:08;;;;;;;370.10;182.47;;;;;;;;;;4997938;28;20252;-65
2022/07/29 03:32:34;;;;;;;331.93;165.60;;;;;;;;;;5007402;28;20240;-64
2022/07/29 03:35:00;;;;;;;391.37;196.77;;;;;;;;;;4998125;28;20675;-64
2022/07/29 03:37:26;;;;;;;359.17;178.87;;;;;;;;;;5001561;28;20278;-65
2022/07/29 03:39:55;;;;;;;385.87;195.80;;;;;;;;;;5001770;28;20236;-65
2022/07/29 03:42:23;;;;;;;348.30;172.07;;;;;;;;;;5004763;28;20282;-65
2022/07/29 03:44:50;;;;;;;398.33;194.87;;;;;;;;;;4999290;28;20231;-65
2022/07/29 03:47:17;;;;;;;396.90;190.60;;;;;;;;;;5004303;28;20220;-65
2022/07/29 03:49:45;;;;;;;374.43;180.83;;;;;;;;;;5004196;28;20185;-65
2022/07/29 03:52:11;;;;;;;374.37;181.87;;;;;;;;;;5006034;28;20232;-65
2022/07/29 03:54:37;;;;;;;345.70;171.00;;;;;;;;;;5002723;28;20232;-65
2022/07/29 03:57:04;;;;;;;375.43;185.87;;;;;;;;;;5006659;28;20221;-65
2022/07/29 03:59:31;;;;;;;376.63;188.33;;;;;;;;;;5007563;28;20224;-65
2022/07/29 04:01:57;;;;;;;387.23;194.40;;;;;;;;;;4998533;28;20205;-64
2022/07/29 04:04:23;;;;;;;400.67;195.17;;;;;;;;;;5001540;28;20185;-65
2022/07/29 04:06:49;;;;;;;398.33;198.67;;;;;;;;;;5003787;28;20278;-65
2022/07/29 04:09:15;;;;;;;412.73;205.03;;;;;;;;;;5001034;28;20590;-65
2022/07/29 04:11:41;;;;;;;372.57;187.37;;;;;;;;;;5004579;28;21178;-65
2022/07/29 04:14:07;;;;;;;351.67;174.93;;;;;;;;;;5010436;28;20243;-65
2022/07/29 04:16:33;;;;;;;335.90;165.70;;;;;;;;;;5003032;28;20216;-65
2022/07/29 04:19:00;;;;;;;383.27;191.63;;;;;;;;;;5003050;28;20212;-65
2022/07/29 04:21:26;;;;;;;445.67;218.77;;;;;;;;;;5000451;28;20257;-65
2022/07/29 04:23:52;;;;;;;387.77;195.83;;;;;;;;;;5005349;28;20220;-65
2022/07/29 04:26:18;;;;;;;371.27;182.57;;;;;;;;;;5007062;28;20274;-65
2022/07/29 04:28:44;;;;;;;318.10;160.47;;;;;;;;;;5011488;28;20181;-65
2022/07/29 04:31:10;;;;;;;334.73;167.33;;;;;;;;;;5008109;28;20216;-65
2022/07/29 04:33:36;;;;;;;334.33;166.87;;;;;;;;;;5005085;28;20670;-65
2022/07/29 04:36:02;;;;;;;387.20;192.37;;;;;;;;;;5008835;28;20217;-65
2022/07/29 04:38:28;;;;;;;375.93;183.53;;;;;;;;;;5022158;28;20225;-65
2022/07/29 04:40:54;;;;;;;383.83;193.03;;;;;;;;;;5001165;28;20896;-65
2022/07/29 04:43:20;;;;;;;368.05;179.80;;;;;;;;;;5008951;28;20193;-65
2022/07/29 04:45:46;;;;;;;359.10;182.73;;;;;;;;;;5005477;28;20225;-65
2022/07/29 04:48:12;;;;;;;368.43;183.47;;;;;;;;;;5003641;28;20220;-65
2022/07/29 04:50:39;;;;;;;328.00;163.93;;;;;;;;;;5000611;28;20221;-65
2022/07/29 04:53:05;;;;;;;357.67;182.23;;;;;;;;;;5005675;28;20209;-65
2022/07/29 04:55:31;;;;;;;370.07;188.87;;;;;;;;;;5009594;28;20650;-65
2022/07/29 04:57:57;;;;;;;353.60;177.03;;;;;;;;;;5006888;28;20216;-65
2022/07/29 05:00:23;;;;;;;367.40;179.37;;;;;;;;;;5005451;28;20224;-65
2022/07/29 05:02:49;;;;;;;376.17;190.43;;;;;;;;;;5009107;28;20235;-65
2022/07/29 05:05:15;;;;;;;388.63;195.00;;;;;;;;;;5004208;28;20220;-65
2022/07/29 05:07:41;;;;;;;351.83;178.40;;;;;;;;;;5006085;28;20189;-65
2022/07/29 05:10:07;;;;;;;359.63;177.07;;;;;;;;;;5004423;28;20221;-65
2022/07/29 05:12:33;;;;;;;335.97;167.67;;;;;;;;;;5005755;28;20236;-65
2022/07/29 05:14:59;;;;;;;372.67;190.07;;;;;;;;;;5004607;28;20578;-65
2022/07/29 05:17:25;;;;;;;350.27;176.93;;;;;;;;;;5002361;28;20443;-65
2022/07/29 05:19:51;;;;;;;402.97;203.97;;;;;;;;;;5007615;28;20196;-65
2022/07/29 05:22:21;;;;;;;366.13;179.63;;;;;;;;;;5006348;28;20200;-65
2022/07/29 05:24:47;;;;;;;358.60;174.30;;;;;;;;;;5007275;28;20251;-65
2022/07/29 05:27:13;;;;;;;366.20;181.83;;;;;;;;;;5004198;28;20684;-65
2022/07/29 05:29:39;;;;;;;360.65;175.05;;;;;;;;;;5007150;28;20990;-64
2022/07/29 05:32:05;;;;;;;361.77;179.30;;;;;;;;;;5008068;28;20213;-64
2022/07/29 05:34:31;;;;;;;357.97;180.70;;;;;;;;;;5008538;28;20255;-65
2022/07/29 05:36:57;;;;;;;391.30;197.33;;;;;;;;;;5004090;28;20571;-64
2022/07/29 05:39:23;;;;;;;431.60;216.30;;;;;;;;;;5003237;28;20236;-64
2022/07/29 05:41:49;;;;;;;393.23;200.27;;;;;;;;;;5003211;28;20233;-64
2022/07/29 05:44:15;;;;;;;368.63;180.43;;;;;;;;;;5001769;28;20239;-64
2022/07/29 05:46:41;;;;;;;372.73;183.57;;;;;;;;;;5021079;28;20201;-64
2022/07/29 05:49:07;;;;;;;359.37;178.40;;;;;;;;;;5001860;28;20674;-64
2022/07/29 05:51:34;;;;;;;318.83;158.37;;;;;;;;;;4999541;28;20243;-63
2022/07/29 05:53:59;;;;;;;391.88;196.70;;;;;;;;;;5001325;28;20235;-68
2022/07/29 05:56:25;;;;;;;422.15;208.50;;;;;;;;;;4998880;28;20629;-66
2022/07/29 05:58:52;;;;;;;385.92;194.50;;;;;;;;;;4998453;28;20239;-69
2022/07/29 06:01:18;;;;;;;353.45;174.70;;;;;;;;;;5004209;28;20189;-69
2022/07/29 06:03:44;;;;;;;387.90;192.50;;;;;;;;;;5000321;28;20631;-68
2022/07/29 06:06:10;;;;;;;385.03;197.50;;;;;;;;;;4997053;28;20221;-69
2022/07/29 06:08:36;;;;;;;332.10;176.67;;;;;;;;;;5000803;28;20265;-71
2022/07/29 06:11:03;;;;;;;409.77;218.03;;;;;;;;;;5003281;28;20198;-73
2022/07/29 06:13:29;;;;;;;342.35;172.63;;;;;;;;;;4999340;28;20216;-67
2022/07/29 06:15:54;;;;;;;409.20;205.13;;;;;;;;;;4999767;28;20278;-69
2022/07/29 06:18:23;;;;;;;545.73;273.10;;;;;;;;;;4987727;28;20224;-71
2022/07/29 06:20:49;;;;;;;363.20;185.60;;;;;;;;;;5002624;28;20275;-72
2022/07/29 06:23:15;;;;;;;365.17;183.10;;;;;;;;;;5006108;28;20602;-71
2022/07/29 06:25:41;;;;;;;431.73;222.52;;;;;;;;;;5002288;28;20193;-70
2022/07/29 06:28:07;;;;;;;376.37;193.90;;;;;;;;;;4996457;28;20263;-70
2022/07/29 06:30:33;;;;;;;436.13;220.70;;;;;;;;;;4999770;28;20240;-70
2022/07/29 06:33:00;;;;;;;384.13;198.55;;;;;;;;;;5003427;28;20236;-70
2022/07/29 06:35:26;;;;;;;337.70;171.67;;;;;;;;;;5002715;28;20235;-71
2022/07/29 06:37:52;;;;;;;357.52;185.23;;;;;;;;;;5010290;28;20185;-72
2022/07/29 06:43:02;;;;;;;424.90;218.75;;;;;;;;;;4995123;28;20270;-75
2022/07/29 06:45:28;;;;;;;424.48;217.48;;;;;;;;;;4996979;28;20217;-68
2022/07/29 06:47:54;;;;;;;403.15;212.63;;;;;;;;;;4993850;28;20693;-68
2022/07/29 06:50:21;;;;;;;391.77;202.98;;;;;;;;;;4993354;28;20300;-72
2022/07/29 06:52:47;;;;;;;404.50;207.80;;;;;;;;;;5002207;28;20212;-68
2022/07/29 06:55:13;;;;;;;512.05;255.35;;;;;;;;;;4994269;28;20240;-71
2022/07/29 06:57:39;;;;;;;336.40;174.43;;;;;;;;;;5001331;28;20276;-69
2022/07/29 07:00:06;;;;;;;407.25;211.32;;;;;;;;;;4988200;28;20266;-69
2022/07/29 07:02:32;;;;;;;375.80;198.90;;;;;;;;;;4994380;28;20691;-69
2022/07/29 07:04:58;;;;;;;458.05;241.65;;;;;;;;;;4990791;28;20204;-69
2022/07/29 07:07:24;;;;;;;397.63;203.07;;;;;;;;;;4995630;28;20196;-69
2022/07/29 07:09:50;;;;;;;371.13;195.15;;;;;;;;;;4998750;28;20221;-71
2022/07/29 07:12:16;;;;;;;436.63;233.90;;;;;;;;;;4995575;28;20220;-70
2022/07/29 07:14:42;;;;;;;360.90;193.07;;;;;;;;;;5000024;28;20220;-70
2022/07/29 07:17:08;;;;;;;469.88;240.43;;;;;;;;;;4996305;28;20188;-70
2022/07/29 07:19:34;;;;;;;347.83;178.73;;;;;;;;;;5004712;28;20209;-70
2022/07/29 07:22:00;;;;;;;370.95;193.55;;;;;;;;;;5006492;28;20220;-70
2022/07/29 07:24:26;;;;;;;395.70;205.32;;;;;;;;;;5005991;28;20910;-69
2022/07/29 07:26:52;;;;;;;495.80;254.75;;;;;;;;;;4995414;28;20934;-68
2022/07/29 07:29:18;;;;;;;391.35;202.73;;;;;;;;;;4989278;28;20223;-68
2022/07/29 07:31:44;;;;;;;420.13;216.60;;;;;;;;;;4993356;28;20204;-63
2022/07/29 07:34:10;;;;;;;366.60;189.27;;;;;;;;;;4996378;28;20225;-63
2022/07/29 07:36:35;;;;;;;346.23;184.02;;;;;;;;;;5001505;28;20270;-63
2022/07/29 07:39:02;;;;;;;432.50;228.80;;;;;;;;;;4999199;28;20224;-63
2022/07/29 07:41:28;;;;;;;441.27;228.95;;;;;;;;;;5001453;28;20220;-63
2022/07/29 07:43:54;;;;;;;377.83;199.95;;;;;;;;;;5001896;28;20236;-63
2022/07/29 07:46:19;;;;;;;423.77;225.18;;;;;;;;;;4995550;28;20177;-62
2022/07/29 07:48:45;;;;;;;361.23;190.32;;;;;;;;;;5002655;28;20236;-62
2022/07/29 07:51:11;;;;;;;403.83;227.82;;;;;;;;;;4992793;28;20220;-68
2022/07/29 07:53:37;;;;;;;341.70;191.55;;;;;;;;;;4988342;28;20240;-68
2022/07/29 07:56:06;;;;;;;362.40;200.50;;;;;;;;;;5003502;28;20561;-68
2022/07/29 07:58:31;;;;;;;358.00;191.85;;;;;;;;;;4997802;28;20385;-68
2022/07/29 08:00:57;;;;;;;445.30;240.65;;;;;;;;;;5002337;28;20721;-68
2022/07/29 08:03:23;;;;;;;387.23;215.55;;;;;;;;;;4994882;28;20221;-68
2022/07/29 08:05:51;;;;;;;387.95;212.32;;;;;;;;;;4998165;28;20221;-69
2022/07/29 08:08:17;;;;;;;450.25;237.48;;;;;;;;;;4998773;28;20226;-68
2022/07/29 08:10:52;;;;;;;379.75;209.57;;;;;;;;;;5000098;28;21078;-68
2022/07/29 08:13:18;;;;;;;396.48;212.38;;;;;;;;;;5007616;28;20224;-68
2022/07/29 08:15:45;;;;;;;410.10;226.02;;;;;;;;;;5006202;28;20256;-68
2022/07/29 08:18:11;;;;;;;352.33;195.38;;;;;;;;;;5008147;28;20268;-68
2022/07/29 08:20:38;;;;;;;351.58;197.70;;;;;;;;;;5012407;28;20551;-68
2022/07/29 08:23:05;;;;;;;417.85;231.10;;;;;;;;;;5006843;28;20213;-68
2022/07/29 08:25:32;;;;;;;381.63;224.57;;;;;;;;;;5008212;28;20619;-68
2022/07/29 08:27:58;;;;;;;374.50;215.45;;;;;;;;;;5006754;28;20228;-68
2022/07/29 08:30:23;;;;;;;383.65;222.73;;;;;;;;;;5012117;28;20239;-68
2022/07/29 08:32:52;;;;;;;357.90;202.60;;;;;;;;;;5011332;28;20232;-68
2022/07/29 08:35:18;;;;;;;368.42;207.63;;;;;;;;;;5012490;28;20662;-68
2022/07/29 08:37:44;;;;;;;374.00;209.50;;;;;;;;;;5008073;28;20543;-67
2022/07/29 08:40:10;;;;;;;346.50;199.13;;;;;;;;;;5009597;28;20224;-68
2022/07/29 08:42:36;;;;;;;354.13;202.95;;;;;;;;;;5010496;28;20228;-69
2022/07/29 08:45:03;;;;;;;393.02;223.43;;;;;;;;;;5012527;28;20228;-68
2022/07/29 08:47:29;;;;;;;402.27;232.95;;;;;;;;;;5009640;28;20474;-68
2022/07/29 08:49:55;;;;;;;383.13;226.27;;;;;;;;;;5005577;28;20259;-68
2022/07/29 08:52:22;;;;;;;378.13;222.77;;;;;;;;;;5012305;28;20654;-68
2022/07/29 08:54:48;;;;;;;369.65;217.07;;;;;;;;;;5010051;28;20213;-68
2022/07/29 08:57:14;;;;;;;355.73;212.10;;;;;;;;;;5005986;28;20217;-68
2022/07/29 08:59:41;;;;;;;393.65;228.25;;;;;;;;;;5010334;28;20688;-68
2022/07/29 09:02:11;;;;;;;359.00;214.75;;;;;;;;;;5006747;28;20204;-68
2022/07/29 09:04:37;;;;;;;379.60;224.20;;;;;;;;;;5009643;28;20650;-68
2022/07/29 09:07:05;;;;;;;388.98;228.35;;;;;;;;;;5007016;28;20671;-69
2022/07/29 09:09:31;;;;;;;433.42;252.75;;;;;;;;;;5000976;28;20216;-71
2022/07/29 09:11:59;;;;;;;415.30;263.65;;;;;;;;;;5000842;28;20228;-64
2022/07/29 09:14:25;;;;;;;414.77;254.30;;;;;;;;;;4997227;28;20208;-64
2022/07/29 09:16:53;;;;;;;430.80;266.95;;;;;;;;;;5002546;28;20196;-64
2022/07/29 09:19:21;;;;;;;423.83;261.95;;;;;;;;;;5002383;28;20262;-64
2022/07/29 09:22:00;;;;;;;484.95;284.00;;;;;;;;;;5004227;28;20228;-64
2022/07/29 09:24:27;;;;;;;424.83;252.75;;;;;;;;;;5003479;28;20231;-64
2022/07/29 09:26:53;;;;;;;419.73;261.77;;;;;;;;;;5004103;28;20215;-64
2022/07/29 09:29:20;;;;;;;422.15;260.95;;;;;;;;;;5002943;28;20243;-64
2022/07/29 09:31:48;;;;;;;500.45;308.75;;;;;;;;;;5003475;28;20201;-64
2022/07/29 09:34:17;;;;;;;512.72;311.45;;;;;;;;;;4987680;28;20221;-66
2022/07/29 09:37:05;;;;;;;410.73;256.65;;;;;;;;;;5007119;28;20218;-66
2022/07/29 09:39:45;;;;;;;472.48;303.48;;;;;;;;;;5002091;28;20212;-66
2022/07/29 09:42:11;;;;;;;443.25;293.10;;;;;;;;;;5000990;28;20216;-66
2022/07/29 09:44:45;;;;;;;372.30;257.70;;;;;;;;;;5001260;28;20213;-66
2022/07/29 09:47:11;;;;;;;374.02;258.85;;;;;;;;;;4999756;28;20559;-66
2022/07/29 09:49:50;;;;;;;414.13;266.98;;;;;;;;;;5001503;28;20628;-66
2022/07/29 09:52:16;;;;;;;401.05;266.75;;;;;;;;;;5000635;28;20216;-67
2022/07/29 09:54:42;;;;;;;410.88;274.63;;;;;;;;;;4999917;28;20312;-66
2022/07/29 09:57:12;;;;;;;379.95;265.80;;;;;;;;;;5017254;28;20667;-70
2022/07/29 09:59:38;;;;;;;376.67;247.40;;;;;;;;;;5003583;28;20213;-67
2022/07/29 10:02:14;;;;;;;351.67;237.90;;;;;;;;;;5005540;28;20213;-70
2022/07/29 10:04:41;;;;;;;375.17;255.13;;;;;;;;;;5005413;28;20180;-69
2022/07/29 10:07:07;;;;;;;373.90;263.80;;;;;;;;;;5001378;28;20212;-70
2022/07/29 10:09:33;;;;;;;445.15;296.95;;;;;;;;;;5002421;28;20609;-68
2022/07/29 10:12:18;;;;;;;397.20;278.83;;;;;;;;;;5003752;28;20228;-68
2022/07/29 10:14:44;;;;;;;368.23;260.88;;;;;;;;;;5006389;28;20206;-65
2022/07/29 10:17:10;;;;;;;446.83;292.30;;;;;;;;;;4997697;28;20665;-66
2022/07/29 10:19:37;;;;;;;364.60;259.85;;;;;;;;;;5008379;28;20200;-65
2022/07/29 10:22:05;;;;;;;398.10;274.75;;;;;;;;;;5000032;28;20779;-65
2022/07/29 10:24:31;;;;;;;419.92;282.55;;;;;;;;;;5006270;28;20219;-66
2022/07/29 10:26:58;;;;;;;451.48;307.92;;;;;;;;;;5000202;28;20607;-66
2022/07/29 10:29:24;;;;;;;393.98;273.33;;;;;;;;;;5003203;28;21200;-66
2022/07/29 10:31:50;;;;;;;400.80;276.48;;;;;;;;;;5007724;28;20685;-66
2022/07/29 10:34:37;;;;;;;440.55;293.63;;;;;;;;;;5002855;28;20188;-65
2022/07/29 10:37:18;;;;;;;397.02;274.90;;;;;;;;;;5002330;28;20670;-66
2022/07/29 10:40:01;;;;;;;397.63;281.17;;;;;;;;;;5001861;28;20219;-64
2022/07/29 10:42:47;;;;;;;389.65;263.05;;;;;;;;;;5001815;28;20231;-65
2022/07/29 10:45:17;;;;;;;405.83;285.83;;;;;;;;;;5002917;28;20220;-66
2022/07/29 10:47:43;;;;;;;390.80;271.35;;;;;;;;;;4999816;28;20217;-65
2022/07/29 10:50:09;;;;;;;407.63;287.52;;;;;;;;;;5006978;28;20569;-66
2022/07/29 10:52:52;;;;;;;408.17;285.02;;;;;;;;;;5013438;28;20247;-66
2022/07/29 10:55:42;;;;;;;427.30;297.02;;;;;;;;;;5012957;28;20269;-65
2022/07/29 10:58:21;;;;;;;388.52;282.65;;;;;;;;;;5012855;28;20220;-66
2022/07/29 11:00:48;;;;;;;388.50;287.67;;;;;;;;;;5009950;28;20262;-64
2022/07/29 11:03:33;;;;;;;416.48;296.02;;;;;;;;;;5013969;28;20227;-65
2022/07/29 11:05:58;;;;;;;393.80;280.77;;;;;;;;;;5005069;28;20271;-64
2022/07/29 11:08:25;;;;;;;466.33;310.02;;;;;;;;;;5011219;28;20216;-64
2022/07/29 11:10:52;;;;;;;419.42;296.38;;;;;;;;;;5007532;28;20174;-65
2022/07/29 11:13:47;;;;;;;377.42;279.88;;;;;;;;;;5015754;28;20208;-64
2022/07/29 11:16:14;;;;;;;414.90;291.00;;;;;;;;;;4987473;28;20568;-65
2022/07/29 11:18:59;;;;;;;414.55;298.83;;;;;;;;;;5006585;28;20251;-65
2022/07/29 11:21:35;;;;;;;453.25;313.98;;;;;;;;;;5006326;28;20225;-66
2022/07/29 11:24:14;;;;;;;410.85;292.40;;;;;;;;;;4999953;28;20243;-65
2022/07/29 11:26:40;;;;;;;393.08;278.67;;;;;;;;;;4995345;28;20220;-64
2022/07/29 11:29:14;;;;;;;400.83;284.92;;;;;;;;;;4997675;28;20208;-66
2022/07/29 11:31:53;;;;;;;395.52;277.10;;;;;;;;;;5003201;28;20216;-64
2022/07/29 11:34:45;;;;;;;407.35;286.70;;;;;;;;;;5010399;28;20212;-65
2022/07/29 11:37:14;;;;;;;403.13;282.92;;;;;;;;;;5010839;28;20235;-64
2022/07/29 11:39:43;;;;;;;407.25;292.70;;;;;;;;;;5012144;28;20271;-65
2022/07/29 11:42:21;;;;;;;428.27;295.00;;;;;;;;;;5006018;28;21688;-63
2022/07/29 11:44:58;;;;;;;390.10;289.98;;;;;;;;;;5002436;28;20547;-65
2022/07/29 11:47:24;;;;;;;407.73;293.73;;;;;;;;;;4996321;28;22393;-64
2022/07/29 11:49:51;;;;;;;421.17;315.17;;;;;;;;;;5002712;28;20181;-65
2022/07/29 11:52:17;;;;;;;463.73;317.27;;;;;;;;;;5009391;28;20663;-65
2022/07/29 11:54:43;;;;;;;403.02;306.63;;;;;;;;;;5000551;28;20228;-64
2022/07/29 11:57:09;;;;;;;408.17;302.65;;;;;;;;;;5003899;28;20224;-64
2022/07/29 11:59:42;;;;;;;471.55;334.23;;;;;;;;;;4996767;28;20565;-67
2022/07/29 12:02:08;;;;;;;393.05;282.63;;;;;;;;;;5015656;28;20200;-67
2022/07/29 12:04:34;;;;;;;408.35;291.95;;;;;;;;;;5015092;28;20185;-67
2022/07/29 12:07:00;;;;;;;452.52;314.90;;;;;;;;;;5015234;28;20233;-67
2022/07/29 12:09:26;;;;;;;432.00;305.20;;;;;;;;;;5014514;28;20223;-67
2022/07/29 12:11:59;;;;;;;411.02;297.90;;;;;;;;;;5016442;28;20275;-68
2022/07/29 12:14:28;;;;;;;463.50;327.08;;;;;;;;;;5015617;28;20558;-68
2022/07/29 12:16:54;;;;;;;415.17;299.05;;;;;;;;;;5008103;28;20189;-67
2022/07/29 12:19:20;;;;;;;387.63;289.52;;;;;;;;;;5009879;28;20176;-68
2022/07/29 12:21:49;;;;;;;390.13;309.50;;;;;;;;;;5001208;28;20241;-67
2022/07/29 12:24:16;;;;;;;427.02;317.45;;;;;;;;;;4999182;28;20260;-67
2022/07/29 12:26:51;;;;;;;403.02;314.45;;;;;;;;;;5004573;28;22256;-67
2022/07/29 12:29:18;;;;;;;390.45;308.92;;;;;;;;;;5011162;28;20240;-67
2022/07/29 12:31:46;;;;;;;392.35;314.77;;;;;;;;;;5009707;28;20600;-67
2022/07/29 12:34:12;;;;;;;407.17;299.80;;;;;;;;;;5006684;28;20217;-67
2022/07/29 12:36:38;;;;;;;371.10;301.63;;;;;;;;;;5011037;28;20228;-67
2022/07/29 12:39:05;;;;;;;355.20;296.13;;;;;;;;;;5014252;28;20229;-67
2022/07/29 12:41:32;;;;;;;378.13;305.10;;;;;;;;;;5013307;28;20567;-67
2022/07/29 12:43:57;;;;;;;398.05;318.08;;;;;;;;;;5005871;28;20205;-67
2022/07/29 12:46:23;;;;;;;367.35;302.98;;;;;;;;;;5008062;28;20177;-67
2022/07/29 12:48:57;;;;;;;405.67;326.75;;;;;;;;;;5008511;28;20220;-67
2022/07/29 12:51:30;;;;;;;393.60;321.70;;;;;;;;;;5017342;28;20558;-67
2022/07/29 12:54:10;;;;;;;405.88;331.38;;;;;;;;;;5014527;28;20236;-67
2022/07/29 12:56:36;;;;;;;383.27;324.98;;;;;;;;;;5008093;28;20678;-67
2022/07/29 12:59:12;;;;;;;407.55;340.63;;;;;;;;;;5011661;28;20185;-67
2022/07/29 13:01:38;;;;;;;399.70;336.00;;;;;;;;;;5009322;28;20196;-68
2022/07/29 13:04:04;;;;;;;372.23;324.23;;;;;;;;;;5009298;28;20674;-68
2022/07/29 13:06:34;;;;;;;388.85;329.38;;;;;;;;;;5007981;28;20212;-67
2022/07/29 13:09:08;;;;;;;415.63;351.77;;;;;;;;;;5013916;28;20216;-67
2022/07/29 13:11:39;;;;;;;426.65;353.05;;;;;;;;;;5006315;28;20228;-67
2022/07/29 13:14:08;;;;;;;389.67;336.20;;;;;;;;;;5009779;28;20200;-67
2022/07/29 13:16:34;;;;;;;376.05;329.02;;;;;;;;;;5011261;28;20227;-68
2022/07/29 13:19:07;;;;;;;406.67;348.63;;;;;;;;;;5006746;28;20221;-67
2022/07/29 13:21:34;;;;;;;372.60;331.30;;;;;;;;;;5024222;28;20223;-67
2022/07/29 13:24:00;;;;;;;395.58;345.13;;;;;;;;;;5010600;28;20223;-68
2022/07/29 13:26:26;;;;;;;386.08;334.90;;;;;;;;;;5006492;28;20224;-67
2022/07/29 13:28:52;;;;;;;388.17;330.05;;;;;;;;;;5013032;28;20606;-67
2022/07/29 13:31:18;;;;;;;379.80;317.45;;;;;;;;;;5011024;28;20178;-67
2022/07/29 13:33:44;;;;;;;375.90;328.55;;;;;;;;;;5010946;28;20227;-68
2022/07/29 13:36:10;;;;;;;385.75;327.02;;;;;;;;;;5010070;28;20209;-67
2022/07/29 13:38:36;;;;;;;387.95;327.98;;;;;;;;;;5009806;28;20942;-67
2022/07/29 13:41:02;;;;;;;410.58;345.65;;;;;;;;;;5007855;28;20177;-67
2022/07/29 13:43:28;;;;;;;398.13;341.65;;;;;;;;;;5013068;28;20209;-67
2022/07/29 13:45:53;;;;;;;386.30;341.17;;;;;;;;;;5007232;28;20718;-67
2022/07/29 13:48:20;;;;;;;377.25;330.67;;;;;;;;;;5012480;28;20586;-67
2022/07/29 13:50:47;;;;;;;405.08;351.65;;;;;;;;;;5009705;28;20212;-67
2022/07/29 13:53:13;;;;;;;393.38;345.52;;;;;;;;;;5011337;28;20595;-68
2022/07/29 13:55:39;;;;;;;439.98;359.30;;;;;;;;;;5010733;28;20196;-67
2022/07/29 13:58:05;;;;;;;373.00;332.80;;;;;;;;;;5012692;28;20414;-67
2022/07/29 14:00:31;;;;;;;384.38;341.55;;;;;;;;;;5011635;28;20220;-68
2022/07/29 14:02:57;;;;;;;411.58;366.30;;;;;;;;;;5009136;28;20232;-67
2022/07/29 14:05:23;;;;;;;382.83;340.45;;;;;;;;;;5011569;28;20244;-67